createdAt,value
2023-02-28T00:01:13.994Z,103202.09
2023-02-28T00:03:17.554Z,103199.44
2023-02-28T00:05:23.384Z,103200.34
2023-02-28T00:07:26.610Z,103197.72
2023-02-28T00:09:30.002Z,103200.31
2023-02-28T00:11:33.349Z,103206.44
2023-02-28T00:13:39.322Z,103200.28
2023-02-28T00:15:43.554Z,103206.44
2023-02-28T00:17:48.379Z,103208.19
2023-02-28T00:19:52.286Z,103198.56
2023-02-28T00:21:55.813Z,103203.81
2023-02-28T00:23:59.528Z,103203.84
2023-02-28T00:26:03.481Z,103202.94
2023-02-28T00:28:07.141Z,103204.66
2023-02-28T00:30:13.529Z,103206.41
2023-02-28T00:32:17.140Z,103209.91
2023-02-28T00:34:22.192Z,103208.19
2023-02-28T00:36:25.715Z,103215.16
2023-02-28T00:38:29.202Z,103221.31
2023-02-28T00:40:32.939Z,103221.28
2023-02-28T00:42:37.022Z,103218.66
2023-02-28T00:44:40.742Z,103213.41
2023-02-28T00:46:44.304Z,103209.00
2023-02-28T00:48:47.938Z,103225.69
2023-02-28T00:50:53.279Z,103220.44
2023-02-28T00:52:56.703Z,103216.06
2023-02-28T00:55:00.390Z,103218.69
2023-02-28T00:57:04.253Z,103209.91
2023-02-28T00:59:09.228Z,103217.78
2023-02-28T01:01:13.084Z,103214.25
2023-02-28T01:03:17.336Z,103216.00
2023-02-28T01:05:20.819Z,103216.88
2023-02-28T01:07:26.092Z,103220.41
2023-02-28T01:09:30.734Z,103223.91
2023-02-28T01:11:36.601Z,103230.94
2023-02-28T01:13:40.196Z,103227.44
2023-02-28T01:15:52.360Z,103224.81
2023-02-28T01:17:56.289Z,103227.41
2023-02-28T01:19:59.838Z,103230.06
2023-02-28T01:22:04.838Z,103228.28
2023-02-28T01:24:10.236Z,103223.88
2023-02-28T01:26:16.096Z,103217.72
2023-02-28T01:28:19.695Z,103217.72
2023-02-28T01:30:23.476Z,103217.72
2023-02-28T01:32:27.151Z,103217.69
2023-02-28T01:34:30.740Z,103220.31
2023-02-28T01:36:34.342Z,103222.97
2023-02-28T01:38:38.132Z,103213.31
2023-02-28T01:40:43.178Z,103223.84
2023-02-28T01:42:47.659Z,103223.84
2023-02-28T01:45:05.705Z,103221.19
2023-02-28T01:47:09.305Z,103217.69
2023-02-28T01:49:17.743Z,103222.09
2023-02-28T01:51:25.686Z,103226.50
2023-02-28T01:53:36.788Z,103224.72
2023-02-28T01:55:42.503Z,103218.59
2023-02-28T01:57:51.052Z,103227.38
2023-02-28T02:00:00.848Z,103220.31
2023-02-28T02:02:05.257Z,103222.09
2023-02-28T02:04:09.699Z,103225.63
2023-02-28T02:06:13.238Z,103226.47
2023-02-28T02:08:23.039Z,103222.09
2023-02-28T02:10:34.073Z,103226.44
2023-02-28T02:12:54.674Z,103229.06
2023-02-28T02:15:05.463Z,103216.78
2023-02-28T02:17:20.886Z,103215.91
2023-02-28T02:19:48.631Z,103215.88
2023-02-28T02:22:23.641Z,103215.84
2023-02-28T02:24:50.008Z,103217.59
2023-02-28T02:27:07.043Z,103212.34
2023-02-28T02:29:50.135Z,103214.13
2023-02-28T02:32:06.667Z,103223.78
2023-02-28T02:34:33.845Z,103227.31
2023-02-28T02:36:42.344Z,103222.03
2023-02-28T02:38:52.375Z,103220.31
2023-02-28T02:41:04.655Z,103223.84
2023-02-28T02:43:15.690Z,103224.72
2023-02-28T02:45:24.985Z,103221.22
2023-02-28T02:47:33.261Z,103222.97
2023-02-28T02:49:40.785Z,103226.50
2023-02-28T02:51:46.772Z,103226.53
2023-02-28T02:53:54.196Z,103223.03
2023-02-28T02:56:00.348Z,103216.88
2023-02-28T02:58:07.128Z,103223.88
2023-02-28T03:00:12.500Z,103213.34
2023-02-28T03:02:20.359Z,103209.84
2023-02-28T03:04:29.663Z,103211.63
2023-02-28T03:06:34.568Z,103209.00
2023-02-28T03:08:39.961Z,103208.09
2023-02-28T03:10:45.406Z,103208.13
2023-02-28T03:13:21.700Z,103208.13
2023-02-28T03:15:35.379Z,103213.41
2023-02-28T03:17:56.802Z,103211.66
2023-02-28T03:20:11.281Z,103217.78
2023-02-28T03:22:32.536Z,103216.06
2023-02-28T03:24:43.685Z,103220.44
2023-02-28T03:26:55.404Z,103218.72
2023-02-28T03:29:06.530Z,103226.59
2023-02-28T03:31:17.614Z,103223.97
2023-02-28T03:33:26.682Z,103219.56
2023-02-28T03:35:35.598Z,103224.84
2023-02-28T03:37:45.381Z,103220.44
2023-02-28T03:39:53.026Z,103228.34
2023-02-28T03:42:02.329Z,103232.72
2023-02-28T03:44:11.182Z,103230.97
2023-02-28T03:46:22.353Z,103233.63
2023-02-28T03:48:33.422Z,103228.34
2023-02-28T03:50:40.617Z,103226.56
2023-02-28T03:52:51.963Z,103229.19
2023-02-28T03:54:57.944Z,103226.56
2023-02-28T03:57:08.609Z,103236.22
2023-02-28T03:59:16.981Z,103238.88
2023-02-28T04:01:26.333Z,103240.59
2023-02-28T04:03:29.961Z,103233.63
2023-02-28T04:05:34.370Z,103242.38
2023-02-28T04:07:38.114Z,103237.97
2023-02-28T04:09:43.564Z,103231.81
2023-02-28T04:11:52.630Z,103233.53
2023-02-28T04:13:56.188Z,103230.88
2023-02-28T04:15:59.596Z,103235.22
2023-02-28T04:18:03.934Z,103230.84
2023-02-28T04:20:10.765Z,103238.75
2023-02-28T04:22:14.743Z,103236.09
2023-02-28T04:24:20.353Z,103241.38
2023-02-28T04:26:25.350Z,103236.06
2023-02-28T04:28:28.966Z,103246.63
2023-02-28T04:30:33.718Z,103249.25
2023-02-28T04:32:37.270Z,103243.13
2023-02-28T04:34:41.129Z,103255.41
2023-02-28T04:36:44.855Z,103258.91
2023-02-28T04:38:48.919Z,103258.03
2023-02-28T04:40:52.537Z,103256.28
2023-02-28T04:42:57.428Z,103249.22
2023-02-28T04:45:00.968Z,103257.13
2023-02-28T04:47:04.405Z,103266.78
2023-02-28T04:49:08.058Z,103263.31
2023-02-28T04:51:13.371Z,103259.81
2023-02-28T04:53:16.796Z,103262.47
2023-02-28T04:55:20.496Z,103262.47
2023-02-28T04:57:24.180Z,103272.13
2023-02-28T04:59:29.392Z,103273.00
2023-02-28T05:01:35.996Z,103268.63
2023-02-28T05:03:39.766Z,103265.97
2023-02-28T05:05:43.390Z,103273.00
2023-02-28T05:07:47.414Z,103272.09
2023-02-28T05:09:51.015Z,103258.94
2023-02-28T05:11:54.869Z,103270.38
2023-02-28T05:13:58.626Z,103266.00
2023-02-28T05:16:03.665Z,103266.94
2023-02-28T05:18:07.213Z,103274.00
2023-02-28T05:20:16.172Z,103278.47
2023-02-28T05:22:19.986Z,103277.72
2023-02-28T05:24:25.007Z,103288.38
2023-02-28T05:26:29.506Z,103282.28
2023-02-28T05:28:33.021Z,103287.59
2023-02-28T05:30:36.776Z,103288.50
2023-02-28T05:32:44.005Z,103294.66
2023-02-28T05:34:47.714Z,103299.91
2023-02-28T05:36:51.378Z,103299.91
2023-02-28T05:38:54.989Z,103299.06
2023-02-28T05:40:58.558Z,103301.69
2023-02-28T05:43:02.249Z,103301.69
2023-02-28T05:45:06.606Z,103306.94
2023-02-28T05:47:10.174Z,103304.31
2023-02-28T05:49:15.244Z,103312.19
2023-02-28T05:51:19.201Z,103310.44
2023-02-28T05:53:23.086Z,103311.31
2023-02-28T05:55:26.925Z,103301.66
2023-02-28T05:57:30.406Z,103299.03
2023-02-28T05:59:34.217Z,103301.66
2023-02-28T06:01:39.554Z,103306.03
2023-02-28T06:03:43.015Z,103299.91
2023-02-28T06:05:48.432Z,103302.53
2023-02-28T06:07:51.871Z,103307.78
2023-02-28T06:09:55.460Z,103304.25
2023-02-28T06:12:00.440Z,103303.38
2023-02-28T06:14:04.953Z,103312.13
2023-02-28T06:16:09.249Z,103312.13
2023-02-28T06:18:12.790Z,103305.97
2023-02-28T06:20:16.305Z,103303.34
2023-02-28T06:22:21.357Z,103311.22
2023-02-28T06:24:26.306Z,103305.09
2023-02-28T06:26:29.847Z,103305.97
2023-02-28T06:28:33.756Z,103306.84
2023-02-28T06:30:37.356Z,103309.47
2023-02-28T06:32:40.983Z,103308.59
2023-02-28T06:34:44.810Z,103295.44
2023-02-28T06:36:48.340Z,103297.22
2023-02-28T06:38:55.897Z,103306.81
2023-02-28T06:41:00.908Z,103305.94
2023-02-28T06:43:04.838Z,103320.00
2023-02-28T06:45:10.648Z,103317.34
2023-02-28T06:47:14.425Z,103324.34
2023-02-28T06:49:18.150Z,103327.88
2023-02-28T06:51:25.442Z,103320.84
2023-02-28T06:53:29.153Z,103331.34
2023-02-28T06:55:34.265Z,103332.25
2023-02-28T06:57:37.955Z,103333.97
2023-02-28T06:59:41.556Z,103343.63
2023-02-28T07:01:45.387Z,103343.63
2023-02-28T07:03:53.331Z,103346.28
2023-02-28T07:05:57.750Z,103345.41
2023-02-28T07:08:01.460Z,103341.88
2023-02-28T07:10:05.451Z,103350.66
2023-02-28T07:12:10.508Z,103348.00
2023-02-28T07:14:14.741Z,103354.19
2023-02-28T07:16:18.463Z,103351.53
2023-02-28T07:18:22.159Z,103355.00
2023-02-28T07:20:26.208Z,103357.69
2023-02-28T07:22:30.007Z,103362.03
2023-02-28T07:24:33.673Z,103360.28
2023-02-28T07:26:37.429Z,103355.88
2023-02-28T07:28:43.437Z,103367.28
2023-02-28T07:30:47.057Z,103361.13
2023-02-28T07:32:50.811Z,103360.25
2023-02-28T07:34:54.348Z,103359.38
2023-02-28T07:36:59.933Z,103364.66
2023-02-28T07:39:07.919Z,103369.91
2023-02-28T07:41:12.704Z,103364.66
2023-02-28T07:43:16.517Z,103361.16
2023-02-28T07:45:21.462Z,103368.13
2023-02-28T07:47:25.634Z,103361.13
2023-02-28T07:49:29.077Z,103368.16
2023-02-28T07:51:33.366Z,103378.69
2023-02-28T07:53:37.091Z,103379.59
2023-02-28T07:55:40.704Z,103384.88
2023-02-28T07:57:44.570Z,103392.81
2023-02-28T07:59:48.300Z,103386.66
2023-02-28T08:01:53.857Z,103387.53
2023-02-28T08:03:58.266Z,103388.41
2023-02-28T08:06:03.488Z,103391.06
2023-02-28T08:08:07.045Z,103395.41
2023-02-28T08:10:11.093Z,103403.31
2023-02-28T08:12:14.805Z,103398.06
2023-02-28T08:14:18.984Z,103402.41
2023-02-28T08:16:23.623Z,103407.66
2023-02-28T08:18:28.692Z,103400.69
2023-02-28T08:20:32.321Z,103408.56
2023-02-28T08:22:35.933Z,103401.56
2023-02-28T08:24:39.859Z,103406.81
2023-02-28T08:26:43.674Z,103408.56
2023-02-28T08:28:47.714Z,103406.78
2023-02-28T08:30:51.397Z,103415.56
2023-02-28T08:32:55.682Z,103412.06
2023-02-28T08:35:01.514Z,103411.19
2023-02-28T08:37:05.143Z,103410.31
2023-02-28T08:39:10.264Z,103404.19
2023-02-28T08:41:14.453Z,103399.81
2023-02-28T08:43:18.125Z,103408.56
2023-02-28T08:45:21.920Z,103411.19
2023-02-28T08:47:25.494Z,103407.69
2023-02-28T08:49:29.759Z,103407.69
2023-02-28T08:51:34.752Z,103405.06
2023-02-28T08:53:38.880Z,103409.44
2023-02-28T08:55:42.381Z,103412.06
2023-02-28T08:57:46.221Z,103416.47
2023-02-28T08:59:49.874Z,103412.94
2023-02-28T09:01:53.571Z,103423.44
2023-02-28T09:03:58.262Z,103421.69
2023-02-28T09:06:03.361Z,103421.72
2023-02-28T09:08:08.442Z,103422.56
2023-02-28T09:10:12.301Z,103422.56
2023-02-28T09:12:15.775Z,103420.81
2023-02-28T09:14:19.711Z,103426.06
2023-02-28T09:16:23.848Z,103422.53
2023-02-28T09:18:28.107Z,103414.66
2023-02-28T09:20:31.655Z,103426.91
2023-02-28T09:22:35.374Z,103418.16
2023-02-28T09:26:56.470Z,103435.72
2023-02-28T09:29:07.797Z,103428.66
2023-02-28T09:31:15.490Z,103431.25
2023-02-28T09:33:21.899Z,103440.03
2023-02-28T09:35:27.995Z,103426.84
2023-02-28T09:37:32.342Z,103436.50
2023-02-28T09:39:35.996Z,103432.97
2023-02-28T09:41:49.736Z,103430.34
2023-02-28T09:43:58.130Z,103431.22
2023-02-28T09:46:08.728Z,103431.19
2023-02-28T09:48:18.339Z,103429.47
2023-02-28T09:50:34.405Z,103436.47
2023-02-28T09:52:40.218Z,103435.56
2023-02-28T09:54:44.395Z,103426.78
2023-02-28T09:56:54.542Z,103425.91
2023-02-28T09:59:07.941Z,103420.63
2023-02-28T10:01:21.695Z,103428.50
2023-02-28T10:03:31.618Z,103430.25
2023-02-28T10:05:43.362Z,103421.41
2023-02-28T10:08:06.260Z,103424.00
2023-02-28T10:10:24.427Z,103421.44
2023-02-28T10:12:32.508Z,103423.22
2023-02-28T10:14:37.932Z,103421.47
2023-02-28T10:16:47.861Z,103426.72
2023-02-28T10:18:57.953Z,103425.84
2023-02-28T10:21:02.460Z,103414.44
2023-02-28T10:23:14.799Z,103424.06
2023-02-28T10:25:21.537Z,103426.69
2023-02-28T10:27:27.941Z,103424.03
2023-02-28T10:29:36.114Z,103430.16
2023-02-28T10:31:41.733Z,103430.19
2023-02-28T10:33:46.923Z,103431.00
2023-02-28T10:35:51.184Z,103430.97
2023-02-28T10:37:58.723Z,103438.84
2023-02-28T10:40:03.088Z,103437.09
2023-02-28T10:42:08.061Z,103430.13
2023-02-28T10:44:24.082Z,103436.25
2023-02-28T10:46:33.432Z,103432.78
2023-02-28T10:48:40.519Z,103438.94
2023-02-28T10:50:48.077Z,103427.56
2023-02-28T10:52:52.445Z,103422.38
2023-02-28T10:55:18.268Z,103441.72
2023-02-28T10:57:25.640Z,103438.25
2023-02-28T10:59:32.741Z,103439.06
2023-02-28T11:01:44.525Z,103436.44
2023-02-28T11:03:49.130Z,103434.59
2023-02-28T11:05:53.239Z,103424.00
2023-02-28T11:07:59.463Z,103432.75
2023-02-28T11:10:04.744Z,103429.22
2023-02-28T11:12:11.268Z,103430.97
2023-02-28T11:14:23.203Z,103433.56
2023-02-28T11:16:36.576Z,103423.84
2023-02-28T11:18:46.760Z,103414.22
2023-02-28T11:20:52.525Z,103422.13
2023-02-28T11:22:58.545Z,103419.47
2023-02-28T11:25:04.869Z,103421.22
2023-02-28T11:27:11.700Z,103422.09
2023-02-28T11:29:21.944Z,103420.31
2023-02-28T11:31:28.615Z,103416.78
2023-02-28T11:33:34.223Z,103415.91
2023-02-28T11:35:41.976Z,103424.53
2023-02-28T11:37:47.213Z,103426.03
2023-02-28T11:39:51.215Z,103425.75
2023-02-28T11:42:45.354Z,103425.66
2023-02-28T11:45:05.274Z,103431.09
2023-02-28T11:47:16.460Z,103434.75
2023-02-28T11:49:28.543Z,103427.06
2023-02-28T11:51:37.673Z,103424.59
2023-02-28T11:53:57.972Z,103429.13
2023-02-28T11:56:09.181Z,103422.16
2023-02-28T11:58:27.878Z,103439.91
2023-02-28T12:00:45.209Z,103447.06
2023-02-28T12:03:09.807Z,103446.22
2023-02-28T12:05:23.974Z,103444.50
2023-02-28T12:07:52.836Z,103433.09
2023-02-28T12:10:09.663Z,103436.56
2023-02-28T12:12:26.452Z,103429.53
2023-02-28T12:14:59.599Z,103425.13
2023-02-28T12:17:20.236Z,103425.94
2023-02-28T12:19:29.456Z,103421.44
2023-02-28T12:21:45.226Z,103421.34
2023-02-28T12:24:05.576Z,103421.25
2023-02-28T12:26:18.603Z,103422.09
2023-02-28T12:28:27.980Z,103409.84
2023-02-28T12:30:35.000Z,103414.31
2023-02-28T12:32:44.094Z,103408.97
2023-02-28T12:34:53.620Z,103402.84
2023-02-28T12:37:01.292Z,103408.13
2023-02-28T12:39:14.230Z,103405.50
2023-02-28T12:41:21.359Z,103410.75
2023-02-28T12:43:29.519Z,103407.25
2023-02-28T12:45:42.171Z,103398.47
2023-02-28T12:47:48.911Z,103394.97
2023-02-28T12:49:56.685Z,103410.88
2023-02-28T12:52:02.193Z,103399.53
2023-02-28T12:54:17.098Z,103395.22
2023-02-28T12:56:33.258Z,103404.00
2023-02-28T12:58:40.489Z,103405.75
2023-02-28T13:01:07.974Z,103399.59
2023-02-28T13:03:37.593Z,103391.69
2023-02-28T13:06:17.155Z,103387.28
2023-02-28T13:08:41.780Z,103389.03
2023-02-28T13:10:48.721Z,103379.34
2023-02-28T13:12:53.830Z,103383.72
2023-02-28T13:15:12.602Z,103378.44
2023-02-28T13:17:22.345Z,103377.53
2023-02-28T13:19:28.442Z,103381.03
2023-02-28T13:21:33.115Z,103382.78
2023-02-28T13:23:42.625Z,103383.72
2023-02-28T13:25:56.707Z,103380.22
2023-02-28T13:28:05.309Z,103375.00
2023-02-28T13:30:45.860Z,103381.16
2023-02-28T13:33:20.094Z,103371.53
2023-02-28T13:35:59.418Z,103373.28
2023-02-28T13:38:50.695Z,103365.38
2023-02-28T13:41:00.010Z,103368.84
2023-02-28T13:43:04.602Z,103371.47
2023-02-28T13:45:29.186Z,103362.75
2023-02-28T13:47:36.235Z,103360.19
2023-02-28T13:49:44.576Z,103359.25
2023-02-28T13:51:51.156Z,103357.53
2023-02-28T13:54:06.718Z,103361.97
2023-02-28T13:56:29.985Z,103350.53
2023-02-28T13:58:56.376Z,103344.41
2023-02-28T14:01:25.258Z,103350.56
2023-02-28T14:03:50.252Z,103349.69
2023-02-28T14:06:26.325Z,103352.34
2023-02-28T14:08:30.422Z,103348.78
2023-02-28T14:10:37.543Z,103355.78
2023-02-28T14:13:03.428Z,103354.06
2023-02-28T14:15:28.746Z,103358.41
2023-02-28T14:17:32.571Z,103351.34
2023-02-28T14:19:39.562Z,103351.38
2023-02-28T14:21:58.816Z,103347.84
2023-02-28T14:24:52.659Z,103343.44
2023-02-28T14:27:10.730Z,103342.56
2023-02-28T14:29:33.120Z,103336.41
2023-02-28T14:31:39.574Z,103335.53
2023-02-28T14:34:02.203Z,103339.03
2023-02-28T14:36:12.040Z,103335.50
2023-02-28T14:38:23.962Z,103333.78
2023-02-28T14:40:32.371Z,103341.66
2023-02-28T14:42:42.879Z,103339.88
2023-02-28T14:44:57.675Z,103339.91
2023-02-28T14:47:06.810Z,103339.00
2023-02-28T14:49:19.568Z,103337.25
2023-02-28T14:51:24.477Z,103332.88
2023-02-28T14:53:32.668Z,103341.69
2023-02-28T14:55:38.398Z,103339.03
2023-02-28T14:57:45.306Z,103339.00
2023-02-28T14:59:49.194Z,103328.47
2023-02-28T15:01:53.429Z,103333.72
2023-02-28T15:04:04.088Z,103326.75
2023-02-28T15:06:15.505Z,103326.75
2023-02-28T15:08:21.188Z,103327.59
2023-02-28T15:10:28.769Z,103329.38
2023-02-28T15:12:32.449Z,103330.22
2023-02-28T15:14:39.476Z,103333.72
2023-02-28T15:16:48.073Z,103323.22
2023-02-28T15:18:55.215Z,103324.97
2023-02-28T15:21:01.385Z,103318.88
2023-02-28T15:23:05.081Z,103329.41
2023-02-28T15:25:10.420Z,103327.69
2023-02-28T15:27:23.411Z,103316.28
2023-02-28T15:29:30.343Z,103319.78
2023-02-28T15:31:50.280Z,103318.94
2023-02-28T15:34:04.925Z,103313.66
2023-02-28T15:36:15.709Z,103317.16
2023-02-28T15:38:24.685Z,103313.63
2023-02-28T15:40:30.675Z,103316.25
2023-02-28T15:42:35.535Z,103316.22
2023-02-28T15:44:39.223Z,103322.34
2023-02-28T15:46:45.583Z,103324.16
2023-02-28T15:48:53.960Z,103318.06
2023-02-28T15:50:59.912Z,103323.34
2023-02-28T15:53:05.557Z,103314.59
2023-02-28T15:55:19.810Z,103319.84
2023-02-28T15:57:26.716Z,103318.94
2023-02-28T15:59:33.658Z,103315.41
2023-02-28T16:01:38.936Z,103315.41
2023-02-28T16:03:46.738Z,103311.06
2023-02-28T16:06:26.579Z,103318.97
2023-02-28T16:08:30.200Z,103325.97
2023-02-28T16:10:33.885Z,103323.31
2023-02-28T16:12:39.517Z,103319.81
2023-02-28T16:14:46.536Z,103320.66
2023-02-28T16:16:52.986Z,103320.69
2023-02-28T16:18:57.137Z,103323.34
2023-02-28T16:21:00.677Z,103322.50
2023-02-28T16:23:04.450Z,103320.75
2023-02-28T16:25:09.151Z,103327.75
2023-02-28T16:27:24.069Z,103324.28
2023-02-28T16:29:31.190Z,103318.16
2023-02-28T16:31:40.227Z,103318.16
2023-02-28T16:33:43.717Z,103327.78
2023-02-28T16:35:47.367Z,103329.53
2023-02-28T16:37:53.212Z,103322.50
2023-02-28T16:39:56.738Z,103324.28
2023-02-28T16:42:00.322Z,103326.06
2023-02-28T16:44:04.400Z,103326.03
2023-02-28T16:46:08.185Z,103329.53
2023-02-28T16:48:16.091Z,103326.88
2023-02-28T16:50:22.332Z,103331.28
2023-02-28T16:52:25.759Z,103327.75
2023-02-28T16:54:29.591Z,103324.25
2023-02-28T16:56:33.707Z,103318.09
2023-02-28T16:58:37.785Z,103325.16
2023-02-28T17:00:41.597Z,103322.53
2023-02-28T17:02:45.335Z,103329.53
2023-02-28T17:04:50.282Z,103328.63
2023-02-28T17:06:54.220Z,103329.50
2023-02-28T17:08:58.794Z,103328.63
2023-02-28T17:11:03.466Z,103328.63
2023-02-28T17:13:14.941Z,103324.22
2023-02-28T17:15:20.652Z,103332.97
2023-02-28T17:17:24.680Z,103331.22
2023-02-28T17:19:29.227Z,103329.47
2023-02-28T17:21:34.596Z,103329.47
2023-02-28T17:23:38.048Z,103331.28
2023-02-28T17:25:41.806Z,103333.03
2023-02-28T17:27:45.811Z,103334.78
2023-02-28T17:29:49.494Z,103333.03
2023-02-28T17:31:53.136Z,103333.94
2023-02-28T17:33:57.068Z,103332.16
2023-02-28T17:36:00.794Z,103337.41
2023-02-28T17:38:06.191Z,103338.31
2023-02-28T17:40:15.309Z,103337.44
2023-02-28T17:42:19.935Z,103343.56
2023-02-28T17:44:26.188Z,103345.28
2023-02-28T17:46:30.308Z,103343.59
2023-02-28T17:48:34.310Z,103347.94
2023-02-28T17:50:37.952Z,103347.06
2023-02-28T17:52:41.716Z,103351.44
2023-02-28T17:54:46.818Z,103347.94
2023-02-28T17:56:50.498Z,103349.69
2023-02-28T17:58:56.147Z,103352.31
2023-02-28T18:00:59.819Z,103355.84
2023-02-28T18:03:03.396Z,103359.31
2023-02-28T18:05:08.320Z,103358.47
2023-02-28T18:07:14.636Z,103366.38
2023-02-28T18:09:22.731Z,103361.97
2023-02-28T18:11:43.685Z,103367.25
2023-02-28T18:13:48.365Z,103368.13
2023-02-28T18:15:51.993Z,103373.38
2023-02-28T18:17:55.752Z,103377.75
2023-02-28T18:19:59.770Z,103369.88
2023-02-28T18:22:03.401Z,103373.38
2023-02-28T18:24:07.406Z,103375.16
2023-02-28T18:26:10.954Z,103376.88
2023-02-28T18:28:16.204Z,103376.00
2023-02-28T18:30:20.821Z,103370.75
2023-02-28T18:32:24.473Z,103378.63
2023-02-28T18:34:28.472Z,103377.75
2023-02-28T18:36:32.437Z,103378.63
2023-02-28T18:38:36.531Z,103374.25
2023-02-28T18:40:40.710Z,103369.00
2023-02-28T18:42:44.609Z,103366.38
2023-02-28T18:44:49.525Z,103370.75
2023-02-28T18:46:53.007Z,103364.63
2023-02-28T18:48:56.749Z,103370.75
2023-02-28T18:51:00.400Z,103373.41
2023-02-28T18:53:04.202Z,103371.63
2023-02-28T18:55:11.078Z,103368.13
2023-02-28T18:57:14.887Z,103366.34
2023-02-28T18:59:18.798Z,103368.09
2023-02-28T19:01:27.105Z,103375.13
2023-02-28T19:03:30.815Z,103371.63
2023-02-28T19:05:34.757Z,103365.50
2023-02-28T19:07:38.272Z,103376.88
2023-02-28T19:09:42.145Z,103371.63
2023-02-28T19:11:45.712Z,103365.47
2023-02-28T19:13:50.238Z,103379.47
2023-02-28T19:16:03.074Z,103370.72
2023-02-28T19:18:08.274Z,103382.09
2023-02-28T19:20:13.608Z,103376.88
2023-02-28T19:22:16.811Z,103371.59
2023-02-28T19:24:20.649Z,103378.59
2023-02-28T19:26:26.511Z,103377.75
2023-02-28T19:28:31.468Z,103371.59
2023-02-28T19:30:35.392Z,103370.72
2023-02-28T19:32:38.965Z,103363.69
2023-02-28T19:34:44.317Z,103363.69
2023-02-28T19:36:47.932Z,103375.09
2023-02-28T19:38:52.416Z,103380.38
2023-02-28T19:41:01.986Z,103377.75
2023-02-28T19:43:06.257Z,103377.72
2023-02-28T19:45:14.916Z,103384.75
2023-02-28T19:47:18.904Z,103387.44
2023-02-28T19:49:24.414Z,103385.69
2023-02-28T19:51:34.218Z,103382.16
2023-02-28T19:53:40.739Z,103390.03
2023-02-28T19:55:44.752Z,103387.41
2023-02-28T19:57:48.459Z,103396.19
2023-02-28T19:59:52.642Z,103401.47
2023-02-28T20:01:56.580Z,103397.06
2023-02-28T20:04:00.820Z,103396.19
2023-02-28T20:06:07.418Z,103400.59
2023-02-28T20:08:13.421Z,103395.31
2023-02-28T20:10:17.124Z,103392.66
2023-02-28T20:12:24.641Z,103392.69
2023-02-28T20:14:29.200Z,103391.81
2023-02-28T20:16:34.516Z,103390.03
2023-02-28T20:18:39.251Z,103398.81
2023-02-28T20:20:42.866Z,103394.44
2023-02-28T20:22:52.401Z,103395.31
2023-02-28T20:24:58.332Z,103394.44
2023-02-28T20:27:02.077Z,103396.19
2023-02-28T20:29:05.870Z,103388.31
2023-02-28T20:31:13.991Z,103394.47
2023-02-28T20:33:20.515Z,103388.34
2023-02-28T20:35:24.336Z,103396.25
2023-02-28T20:37:29.481Z,103394.47
2023-02-28T20:39:33.090Z,103387.47
2023-02-28T20:41:38.173Z,103394.47
2023-02-28T20:43:42.311Z,103396.22
2023-02-28T20:45:52.895Z,103387.47
2023-02-28T20:47:56.389Z,103383.94
2023-02-28T20:50:00.019Z,103379.56
2023-02-28T20:52:04.421Z,103382.19
2023-02-28T20:54:08.569Z,103387.47
2023-02-28T20:56:16.276Z,103380.44
2023-02-28T20:58:21.366Z,103377.81
2023-02-28T21:00:26.543Z,103382.19
2023-02-28T21:02:30.541Z,103376.06
2023-02-28T21:04:34.543Z,103378.69
2023-02-28T21:06:43.028Z,103380.41
2023-02-28T21:08:47.272Z,103377.78
2023-02-28T21:10:51.103Z,103375.19
2023-02-28T21:12:57.908Z,103369.94
2023-02-28T21:15:02.926Z,103370.78
2023-02-28T21:17:09.239Z,103374.31
2023-02-28T21:19:12.833Z,103378.69
2023-02-28T21:21:18.831Z,103366.41
2023-02-28T21:23:23.535Z,103369.03
2023-02-28T21:25:27.235Z,103376.03
2023-02-28T21:27:30.797Z,103373.41
2023-02-28T21:29:34.643Z,103368.13
2023-02-28T21:31:39.914Z,103358.50
2023-02-28T21:33:43.838Z,103365.50
2023-02-28T21:35:47.620Z,103363.72
2023-02-28T21:37:51.277Z,103362.00
2023-02-28T21:39:54.918Z,103365.50
2023-02-28T21:42:04.319Z,103372.53
2023-02-28T21:44:08.132Z,103368.13
2023-02-28T21:46:23.291Z,103359.34
2023-02-28T21:48:28.480Z,103354.94
2023-02-28T21:50:32.288Z,103365.47
2023-02-28T21:52:36.089Z,103367.25
2023-02-28T21:54:39.753Z,103365.50
2023-02-28T21:56:43.588Z,103369.88
2023-02-28T21:58:49.500Z,103365.50
2023-02-28T22:00:53.128Z,103361.97
2023-02-28T22:02:56.702Z,103354.94
2023-02-28T22:05:03.716Z,103353.22
2023-02-28T22:07:07.701Z,103350.56
2023-02-28T22:09:12.050Z,103352.34
2023-02-28T22:11:17.464Z,103358.47
2023-02-28T22:13:21.393Z,103355.84
2023-02-28T22:15:25.123Z,103358.47
2023-02-28T22:17:28.811Z,103347.94
2023-02-28T22:19:32.419Z,103351.47
2023-02-28T22:21:39.792Z,103347.94
2023-02-28T22:23:44.765Z,103349.72
2023-02-28T22:25:48.338Z,103354.97
2023-02-28T22:27:51.964Z,103361.09
2023-02-28T22:29:56.539Z,103353.22
2023-02-28T22:32:00.306Z,103354.09
2023-02-28T22:34:07.245Z,103354.97
2023-02-28T22:36:12.352Z,103364.63
2023-02-28T22:38:17.492Z,103360.25
2023-02-28T22:40:20.978Z,103361.09
2023-02-28T22:42:24.563Z,103364.63
2023-02-28T22:44:28.544Z,103364.63
2023-02-28T22:46:34.069Z,103368.16
2023-02-28T22:48:38.637Z,103363.78
2023-02-28T22:50:42.121Z,103368.16
2023-02-28T22:52:45.924Z,103361.13
2023-02-28T22:54:53.497Z,103364.66
2023-02-28T22:56:57.102Z,103362.03
2023-02-28T22:59:02.434Z,103374.31
2023-02-28T23:01:10.329Z,103360.25
2023-02-28T23:03:14.008Z,103366.41
2023-02-28T23:05:17.741Z,103361.13
2023-02-28T23:07:21.355Z,103371.66
2023-02-28T23:09:24.942Z,103366.38
2023-02-28T23:11:32.953Z,103362.88
2023-02-28T23:13:37.124Z,103368.13
2023-02-28T23:15:42.922Z,103359.38
2023-02-28T23:17:46.480Z,103360.25
2023-02-28T23:19:49.937Z,103355.88
2023-02-28T23:21:54.379Z,103360.25
2023-02-28T23:23:58.266Z,103357.59
2023-02-28T23:26:01.710Z,103359.38
2023-02-28T23:28:07.094Z,103361.09
2023-02-28T23:30:12.111Z,103347.94
2023-02-28T23:32:15.955Z,103347.06
2023-02-28T23:34:26.468Z,103355.00
2023-02-28T23:36:30.708Z,103346.22
2023-02-28T23:38:34.526Z,103351.47
2023-02-28T23:40:38.384Z,103340.06
2023-02-28T23:42:41.843Z,103340.06
2023-02-28T23:44:47.048Z,103340.94
2023-02-28T23:46:51.628Z,103338.31
2023-02-28T23:48:55.178Z,103336.56
2023-02-28T23:51:03.104Z,103338.31
2023-02-28T23:53:07.802Z,103328.63
2023-02-28T23:55:12.406Z,103326.00
2023-02-28T23:57:15.976Z,103329.53
2023-02-28T23:59:19.543Z,103315.47
